Time;durP1;ratioP1;P1;durP2;ratioP2;P2;SDS_P1;SDS_P2;PMS_P1;PMS_P2;Temp;Humidity;BMP_temperature;BMP_pressure;BME280_temperature;BME280_humidity;BME280_pressure;Samples;Min_cycle;Max_cycle;Signal;HPM_P1;HPM_P2
2021/08/20 00:00:38;;;;;;;7.50;4.50;;;17.80;99.90;;;;;;5074661;28;20843;-75
2021/08/20 00:03:06;;;;;;;4.60;4.20;;;17.80;99.90;;;;;;5074585;28;20765;-76
2021/08/20 00:05:33;;;;;;;5.30;4.70;;;17.90;99.90;;;;;;5075319;28;20462;-76
2021/08/20 00:08:00;;;;;;;5.03;4.53;;;17.90;99.90;;;;;;5074306;28;20458;-76
2021/08/20 00:10:26;;;;;;;5.33;4.83;;;17.90;99.90;;;;;;5074434;28;20493;-76
2021/08/20 00:12:53;;;;;;;5.67;5.17;;;17.90;99.90;;;;;;5074400;28;20458;-76
2021/08/20 00:15:20;;;;;;;6.00;5.40;;;17.90;99.90;;;;;;5074657;28;20465;-76
2021/08/20 00:17:47;;;;;;;5.23;4.73;;;17.90;99.90;;;;;;5074338;28;20462;-75
2021/08/20 00:20:15;;;;;;;6.70;5.50;;;17.90;99.90;;;;;;5073810;28;20450;-75
2021/08/20 00:22:42;;;;;;;5.53;4.93;;;17.90;99.90;;;;;;5074603;28;20465;-75
2021/08/20 00:25:09;;;;;;;5.33;4.83;;;17.90;99.90;;;;;;5077342;28;20465;-75
2021/08/20 00:27:36;;;;;;;6.77;5.60;;;17.90;99.90;;;;;;5078119;28;20462;-76
2021/08/20 00:30:07;;;;;;;5.77;5.17;;;17.90;99.90;;;;;;5078329;28;20508;-75
2021/08/20 00:32:34;;;;;;;7.63;5.93;;;17.90;99.90;;;;;;5078322;28;20784;-76
2021/08/20 00:35:00;;;;;;;7.80;6.03;;;17.90;99.90;;;;;;5078008;28;20461;-76
2021/08/20 00:37:28;;;;;;;7.20;6.50;;;17.80;99.90;;;;;;5078656;28;20461;-76
2021/08/20 00:39:55;;;;;;;5.90;5.33;;;17.70;99.90;;;;;;5078305;28;20462;-76
2021/08/20 00:42:22;;;;;;;6.33;5.07;;;17.70;99.90;;;;;;5077599;28;20856;-76
2021/08/20 00:44:49;;;;;;;7.40;5.83;;;17.70;99.90;;;;;;5078327;28;20880;-76
2021/08/20 00:47:15;;;;;;;7.50;5.70;;;17.70;99.90;;;;;;5077821;28;20451;-76
2021/08/20 00:49:42;;;;;;;6.57;5.93;;;17.60;99.90;;;;;;5077529;28;20816;-77
2021/08/20 00:52:09;;;;;;;7.73;6.20;;;17.50;99.90;;;;;;5077892;28;20454;-76
2021/08/20 00:54:38;;;;;;;6.77;6.07;;;17.50;99.90;;;;;;5077893;28;20949;-76
2021/08/20 00:57:05;;;;;;;6.13;5.20;;;17.50;99.90;;;;;;5077975;28;20458;-77
2021/08/20 00:59:33;;;;;;;9.20;5.97;;;17.50;99.90;;;;;;5077818;28;20458;-76
2021/08/20 01:02:00;;;;;;;6.17;5.50;;;17.50;99.90;;;;;;5077866;28;20910;-76
2021/08/20 01:04:27;;;;;;;6.83;5.07;;;17.50;99.90;;;;;;5078125;28;20465;-76
2021/08/20 01:06:55;;;;;;;6.97;5.20;;;17.50;99.90;;;;;;5077609;28;20472;-76
2021/08/20 01:09:23;;;;;;;6.07;4.83;;;17.40;99.90;;;;;;5077546;28;20478;-76
2021/08/20 01:11:52;;;;;;;5.20;4.70;;;17.40;99.90;;;;;;5077534;28;20459;-76
2021/08/20 01:14:27;;;;;;;5.30;4.40;;;17.40;99.90;;;;;;5077570;28;20458;-76
2021/08/20 01:16:54;;;;;;;4.73;3.90;;;17.40;99.90;;;;;;5077982;28;20448;-76
2021/08/20 01:19:21;;;;;;;6.20;4.37;;;17.40;99.90;;;;;;5077704;28;20783;-76
2021/08/20 01:21:47;;;;;;;15.03;5.33;;;17.30;99.90;;;;;;5077518;28;20832;-76
2021/08/20 01:24:15;;;;;;;6.20;4.87;;;17.30;99.90;;;;;;5077584;28;20485;-76
2021/08/20 01:26:46;;;;;;;7.40;4.43;;;17.30;99.90;;;;;;5077253;28;20964;-76
2021/08/20 01:29:16;;;;;;;5.30;4.80;;;17.40;99.90;;;;;;5077179;28;20462;-77
2021/08/20 01:31:43;;;;;;;7.50;4.20;;;17.40;99.90;;;;;;5076958;28;20469;-77
2021/08/20 01:34:10;;;;;;;6.20;4.80;;;17.30;99.90;;;;;;5077311;28;20758;-76
2021/08/20 01:36:36;;;;;;;6.23;4.67;;;17.40;99.90;;;;;;5077553;28;20465;-77
2021/08/20 01:39:03;;;;;;;4.90;4.50;;;17.40;99.90;;;;;;5077318;28;20461;-77
2021/08/20 01:41:33;;;;;;;5.57;5.07;;;17.40;99.90;;;;;;5076581;28;20469;-76
2021/08/20 01:44:01;;;;;;;6.30;5.07;;;17.40;99.90;;;;;;5076994;28;20446;-77
2021/08/20 01:46:31;;;;;;;7.40;5.23;;;17.40;99.90;;;;;;5076853;28;20502;-76
2021/08/20 01:48:59;;;;;;;7.40;4.97;;;17.50;99.90;;;;;;5076872;28;20477;-76
2021/08/20 01:51:27;;;;;;;5.93;5.37;;;17.50;99.90;;;;;;5076751;28;20976;-77
2021/08/20 01:53:55;;;;;;;5.57;4.70;;;17.50;99.90;;;;;;5076978;28;20458;-77
2021/08/20 01:56:24;;;;;;;5.57;5.07;;;17.50;99.90;;;;;;5076520;28;20925;-77
2021/08/20 01:58:52;;;;;;;6.03;5.40;;;17.60;99.90;;;;;;5076610;28;20469;-77
2021/08/20 02:01:20;;;;;;;5.03;4.43;;;17.60;99.90;;;;;;5076560;28;20780;-77
2021/08/20 02:03:46;;;;;;;5.17;4.67;;;17.60;99.90;;;;;;5076747;28;20462;-77
2021/08/20 02:06:13;;;;;;;5.90;4.47;;;17.60;99.90;;;;;;5076620;28;20824;-77
2021/08/20 02:08:40;;;;;;;4.87;4.30;;;17.60;99.90;;;;;;5076645;28;20465;-77
2021/08/20 02:11:07;;;;;;;4.83;4.17;;;17.60;99.90;;;;;;5076047;28;20512;-76
2021/08/20 02:13:33;;;;;;;4.60;4.20;;;17.50;99.90;;;;;;5075783;28;20903;-77
2021/08/20 02:16:00;;;;;;;5.53;4.63;;;17.60;99.90;;;;;;5076494;28;20453;-77
2021/08/20 02:18:28;;;;;;;5.30;4.60;;;17.60;99.90;;;;;;5076059;28;20462;-76
2021/08/20 02:20:55;;;;;;;6.40;4.37;;;17.60;99.90;;;;;;5076389;28;20461;-76
2021/08/20 02:23:22;;;;;;;5.43;4.00;;;17.60;99.90;;;;;;5076377;28;20534;-76
2021/08/20 02:25:49;;;;;;;5.60;4.33;;;17.70;99.90;;;;;;5076185;28;20465;-76
2021/08/20 02:28:15;;;;;;;5.10;4.47;;;17.70;99.90;;;;;;5076059;28;20454;-77
2021/08/20 02:30:42;;;;;;;4.83;4.20;;;17.70;99.90;;;;;;5076477;28;20493;-77
2021/08/20 02:33:09;;;;;;;6.00;4.90;;;17.70;99.90;;;;;;5076149;28;20450;-77
2021/08/20 02:35:37;;;;;;;5.27;4.70;;;17.70;99.90;;;;;;5076361;28;20454;-76
2021/08/20 02:38:04;;;;;;;5.00;4.60;;;17.70;99.90;;;;;;5076314;28;20489;-77
2021/08/20 02:40:31;;;;;;;5.07;4.50;;;17.70;99.90;;;;;;5076303;28;20450;-76
2021/08/20 02:42:58;;;;;;;6.40;5.17;;;17.70;99.90;;;;;;5075712;28;20482;-78
2021/08/20 02:45:25;;;;;;;5.00;4.50;;;17.70;99.90;;;;;;5075874;28;20479;-76
2021/08/20 02:47:52;;;;;;;4.03;3.63;;;17.60;99.90;;;;;;5075423;28;20880;-76
2021/08/20 02:50:19;;;;;;;4.87;4.40;;;17.60;99.90;;;;;;5076428;28;20481;-77
2021/08/20 02:52:47;;;;;;;5.43;4.20;;;17.60;99.90;;;;;;5076198;28;20806;-76
2021/08/20 02:55:14;;;;;;;5.10;4.13;;;17.60;99.90;;;;;;5075747;28;20462;-77
2021/08/20 02:57:40;;;;;;;5.30;4.70;;;17.60;99.90;;;;;;5075727;28;20508;-77
2021/08/20 03:00:08;;;;;;;4.80;4.37;;;17.70;99.90;;;;;;5078209;28;20450;-77
2021/08/20 03:02:35;;;;;;;5.77;4.30;;;17.70;99.90;;;;;;5077679;28;20484;-77
2021/08/20 03:05:02;;;;;;;8.90;4.40;;;17.70;99.90;;;;;;5077635;28;20459;-77
2021/08/20 03:07:28;;;;;;;5.20;4.70;;;17.70;99.90;;;;;;5077277;28;20789;-77
2021/08/20 03:09:56;;;;;;;5.30;4.80;;;17.70;99.90;;;;;;5075601;28;20474;-77
2021/08/20 03:12:24;;;;;;;6.10;4.37;;;17.60;99.90;;;;;;5075544;28;20465;-77
2021/08/20 03:14:51;;;;;;;4.83;4.33;;;17.60;99.90;;;;;;5076401;28;20820;-77
2021/08/20 03:17:18;;;;;;;5.23;4.73;;;17.60;99.90;;;;;;5076151;28;20788;-77
2021/08/20 03:19:45;;;;;;;6.53;5.13;;;17.60;99.90;;;;;;5076118;28;20454;-77
2021/08/20 03:22:11;;;;;;;5.83;4.80;;;17.60;99.90;;;;;;5075368;28;20462;-77
2021/08/20 03:24:38;;;;;;;5.33;4.63;;;17.70;99.90;;;;;;5075710;28;20540;-77
2021/08/20 03:27:06;;;;;;;8.27;4.80;;;17.70;99.90;;;;;;5075841;28;20470;-78
2021/08/20 03:29:33;;;;;;;5.10;4.60;;;17.70;99.90;;;;;;5075482;28;20836;-77
2021/08/20 03:32:00;;;;;;;6.40;5.13;;;17.80;99.90;;;;;;5076059;28;20579;-77
2021/08/20 03:34:26;;;;;;;5.37;4.87;;;17.80;99.90;;;;;;5075343;28;20789;-76
2021/08/20 03:36:55;;;;;;;6.57;5.50;;;17.80;99.90;;;;;;5075493;28;20455;-77
2021/08/20 03:39:22;;;;;;;6.40;5.37;;;17.80;99.90;;;;;;5075591;28;20484;-78
2021/08/20 03:41:49;;;;;;;7.80;5.73;;;17.80;99.90;;;;;;5075565;28;20509;-76
2021/08/20 03:44:17;;;;;;;8.00;4.47;;;17.80;99.90;;;;;;5077130;28;20442;-77
2021/08/20 03:46:45;;;;;;;5.50;4.77;;;17.90;99.90;;;;;;5084585;28;20454;-77
2021/08/20 03:49:12;;;;;;;5.60;4.73;;;17.80;99.90;;;;;;5083509;28;20469;-77
2021/08/20 03:51:39;;;;;;;6.60;4.60;;;17.80;99.90;;;;;;5082331;28;20795;-77
2021/08/20 03:54:05;;;;;;;5.93;4.80;;;17.80;99.90;;;;;;5082929;28;20760;-77
2021/08/20 03:56:32;;;;;;;5.77;4.80;;;17.80;99.90;;;;;;5085845;28;20506;-77
2021/08/20 03:58:59;;;;;;;5.30;4.80;;;17.90;99.90;;;;;;5084324;28;20468;-77
2021/08/20 04:01:27;;;;;;;5.43;4.57;;;17.90;99.90;;;;;;5085283;28;20454;-77
2021/08/20 04:03:54;;;;;;;5.90;5.30;;;17.90;99.90;;;;;;5083316;28;20465;-77
2021/08/20 04:06:21;;;;;;;6.60;5.90;;;17.90;99.90;;;;;;5086305;28;20449;-77
2021/08/20 04:08:48;;;;;;;5.27;4.77;;;17.90;99.90;;;;;;5087018;28;20454;-76
2021/08/20 04:11:15;;;;;;;7.03;5.47;;;17.90;99.90;;;;;;5084861;28;20557;-77
2021/08/20 04:13:44;;;;;;;5.80;5.17;;;17.90;99.90;;;;;;5085237;28;20451;-77
2021/08/20 04:16:11;;;;;;;6.13;5.50;;;17.90;99.90;;;;;;5081100;28;20533;-76
2021/08/20 04:18:40;;;;;;;7.30;5.03;;;17.90;99.90;;;;;;5083806;28;20462;-76
2021/08/20 04:21:08;;;;;;;6.60;5.90;;;18.00;99.90;;;;;;5082723;28;20458;-76
2021/08/20 04:23:35;;;;;;;5.57;5.07;;;18.00;99.90;;;;;;5085762;28;20529;-77
2021/08/20 04:26:03;;;;;;;5.87;4.80;;;18.00;99.90;;;;;;5082124;28;20462;-77
2021/08/20 04:28:30;;;;;;;7.27;5.80;;;18.00;99.90;;;;;;5078360;28;20461;-77
2021/08/20 04:30:57;;;;;;;5.63;5.00;;;18.00;99.90;;;;;;5081716;28;20478;-77
2021/08/20 04:33:23;;;;;;;4.90;4.50;;;18.00;99.90;;;;;;5093418;28;20454;-77
2021/08/20 04:35:51;;;;;;;10.10;5.67;;;18.00;99.90;;;;;;5093843;28;20450;-77
2021/08/20 04:38:18;;;;;;;6.37;5.10;;;18.00;99.90;;;;;;5094506;28;20454;-77
2021/08/20 04:40:45;;;;;;;6.20;5.60;;;18.00;99.90;;;;;;5093594;28;20500;-76
2021/08/20 04:43:11;;;;;;;5.87;5.27;;;17.90;99.90;;;;;;5092496;28;20819;-76
2021/08/20 04:45:38;;;;;;;6.10;5.10;;;17.80;99.90;;;;;;5092253;28;20452;-77
2021/08/20 04:48:05;;;;;;;5.60;4.57;;;17.70;99.90;;;;;;5091662;28;20445;-76
2021/08/20 04:50:32;;;;;;;7.70;5.00;;;17.60;99.90;;;;;;5092527;28;20478;-76
2021/08/20 04:53:00;;;;;;;6.10;5.50;;;17.50;99.90;;;;;;5090599;28;20529;-77
2021/08/20 04:55:27;;;;;;;7.10;5.20;;;17.50;99.90;;;;;;5092116;28;20474;-76
2021/08/20 04:57:53;;;;;;;6.73;5.80;;;17.50;99.90;;;;;;5090955;28;20457;-76
2021/08/20 05:00:20;;;;;;;6.23;5.63;;;17.50;99.90;;;;;;5080716;28;20552;-77
2021/08/20 05:02:48;;;;;;;6.23;5.57;;;17.50;99.90;;;;;;5075064;28;20476;-77
2021/08/20 05:05:15;;;;;;;6.00;5.40;;;17.40;99.90;;;;;;5075033;28;20458;-77
2021/08/20 05:07:42;;;;;;;7.10;6.23;;;17.30;99.90;;;;;;5075250;28;20485;-78
2021/08/20 05:10:12;;;;;;;8.07;5.80;;;17.30;99.90;;;;;;5075783;28;20580;-77
2021/08/20 05:12:39;;;;;;;7.90;6.20;;;17.30;99.90;;;;;;5078019;28;20446;-77
2021/08/20 05:15:07;;;;;;;8.83;6.57;;;17.40;99.90;;;;;;5078235;28;20798;-77
2021/08/20 05:17:34;;;;;;;9.27;6.70;;;17.30;99.90;;;;;;5078411;28;20494;-76
2021/08/20 05:20:01;;;;;;;6.57;5.80;;;17.30;99.90;;;;;;5077612;28;20454;-78
2021/08/20 05:22:42;;;;;;;42.47;32.57;;;17.30;99.90;;;;;;5078055;28;20457;-77
2021/08/20 05:25:11;;;;;;;9.50;8.20;;;17.30;99.90;;;;;;5077984;28;20826;-77
2021/08/20 05:27:38;;;;;;;10.20;6.30;;;17.40;99.90;;;;;;5078061;28;20496;-77
2021/08/20 05:30:05;;;;;;;7.33;6.47;;;17.40;99.90;;;;;;5078636;28;20458;-77
2021/08/20 05:32:32;;;;;;;9.00;7.03;;;17.40;99.90;;;;;;5078138;28;20468;-77
2021/08/20 05:34:59;;;;;;;8.20;6.40;;;17.50;99.90;;;;;;5077275;28;20930;-76
2021/08/20 05:37:26;;;;;;;7.77;6.73;;;17.50;99.90;;;;;;5078073;28;20458;-77
2021/08/20 05:39:52;;;;;;;13.60;6.77;;;17.50;99.90;;;;;;5077234;28;20787;-76
2021/08/20 05:42:20;;;;;;;8.70;6.83;;;17.50;99.90;;;;;;5077506;28;20504;-77
2021/08/20 05:44:47;;;;;;;7.83;6.50;;;17.50;99.90;;;;;;5077395;28;20462;-77
2021/08/20 05:47:14;;;;;;;8.93;5.67;;;17.50;99.90;;;;;;5076939;28;20462;-77
2021/08/20 05:49:41;;;;;;;8.07;6.03;;;17.50;99.90;;;;;;5077284;28;20469;-77
2021/08/20 05:52:08;;;;;;;8.43;6.27;;;17.50;99.90;;;;;;5078217;28;20489;-77
2021/08/20 05:54:35;;;;;;;9.30;6.67;;;17.50;99.90;;;;;;5076980;28;20450;-77
2021/08/20 05:57:01;;;;;;;7.00;5.70;;;17.50;99.90;;;;;;5077149;28;20458;-76
2021/08/20 05:59:29;;;;;;;9.93;6.97;;;17.50;99.90;;;;;;5077269;28;20461;-77
2021/08/20 06:01:56;;;;;;;7.67;6.93;;;17.50;99.90;;;;;;5076509;28;20511;-77
2021/08/20 06:04:23;;;;;;;7.37;6.50;;;17.50;99.90;;;;;;5076274;28;20805;-77
2021/08/20 06:06:50;;;;;;;8.57;6.70;;;17.60;99.90;;;;;;5076398;28;20480;-77
2021/08/20 06:09:17;;;;;;;9.20;7.07;;;17.60;99.90;;;;;;5076319;28;20462;-77
2021/08/20 06:11:44;;;;;;;7.23;6.53;;;17.70;99.90;;;;;;5076066;28;20986;-77
2021/08/20 06:14:10;;;;;;;8.80;7.60;;;17.80;99.90;;;;;;5076103;28;20458;-77
2021/08/20 06:16:38;;;;;;;15.43;8.53;;;17.90;99.90;;;;;;5076702;28;20454;-77
2021/08/20 06:19:05;;;;;;;9.50;8.53;;;18.00;99.90;;;;;;5077554;28;20477;-77
2021/08/20 06:21:32;;;;;;;11.93;7.93;;;18.00;99.90;;;;;;5075528;28;20465;-77
2021/08/20 06:23:59;;;;;;;12.50;8.60;;;18.10;99.90;;;;;;5076370;28;20458;-77
2021/08/20 06:26:25;;;;;;;10.10;8.20;;;18.20;99.90;;;;;;5076691;28;20458;-77
2021/08/20 06:28:52;;;;;;;20.03;10.07;;;18.20;99.90;;;;;;5076639;28;20455;-77
2021/08/20 06:31:19;;;;;;;12.50;9.90;;;18.30;99.90;;;;;;5076538;28;20565;-77
2021/08/20 06:33:47;;;;;;;9.87;8.83;;;18.40;99.90;;;;;;5077221;28;20794;-77
2021/08/20 06:36:14;;;;;;;14.20;10.33;;;18.40;99.90;;;;;;5076932;28;20458;-77
2021/08/20 06:38:40;;;;;;;13.50;10.47;;;18.40;99.90;;;;;;5075688;28;20933;-76
2021/08/20 06:41:07;;;;;;;17.33;11.50;;;18.50;99.90;;;;;;5075618;28;20461;-77
2021/08/20 06:43:34;;;;;;;12.40;10.20;;;18.50;99.90;;;;;;5075437;28;20834;-77
2021/08/20 06:46:00;;;;;;;14.63;10.80;;;18.50;99.90;;;;;;5076236;28;20468;-77
2021/08/20 06:48:27;;;;;;;14.73;11.70;;;18.60;99.90;;;;;;5076021;28;20470;-76
2021/08/20 06:50:55;;;;;;;16.63;12.47;;;18.60;99.90;;;;;;5075740;28;20758;-77
2021/08/20 06:53:22;;;;;;;13.63;11.57;;;18.70;99.90;;;;;;5076142;28;20454;-77
2021/08/20 06:55:48;;;;;;;15.13;12.70;;;18.80;99.90;;;;;;5075557;28;20450;-77
2021/08/20 06:58:15;;;;;;;17.00;12.07;;;18.90;99.90;;;;;;5075628;28;20454;-77
2021/08/20 07:00:42;;;;;;;16.03;11.60;;;18.90;99.90;;;;;;5075499;28;20477;-77
2021/08/20 07:03:09;;;;;;;14.17;12.13;;;18.90;99.90;;;;;;5076091;28;20465;-77
2021/08/20 07:05:37;;;;;;;16.40;12.90;;;18.90;99.90;;;;;;5076119;28;20477;-77
2021/08/20 07:08:08;;;;;;;17.30;14.90;;;18.90;99.90;;;;;;5076124;28;20458;-77
2021/08/20 07:10:35;;;;;;;19.30;13.00;;;18.90;99.90;;;;;;5076976;28;20818;-77
2021/08/20 07:13:01;;;;;;;17.93;14.23;;;18.90;99.90;;;;;;5076563;28;20468;-77
2021/08/20 07:15:28;;;;;;;17.10;14.27;;;18.90;99.90;;;;;;5077774;28;20454;-78
2021/08/20 07:17:55;;;;;;;20.50;16.07;;;18.90;99.90;;;;;;5078984;28;20458;-77
2021/08/20 07:20:22;;;;;;;17.53;14.20;;;18.90;99.90;;;;;;5075267;28;20454;-77
2021/08/20 07:22:49;;;;;;;23.10;14.30;;;18.80;99.90;;;;;;5076060;28;20454;-77
2021/08/20 07:25:17;;;;;;;17.57;14.97;;;18.90;99.90;;;;;;5075255;28;20458;-77
2021/08/20 07:27:43;;;;;;;17.20;15.33;;;18.90;99.90;;;;;;5075610;28;20575;-77
2021/08/20 07:30:14;;;;;;;19.57;15.93;;;18.80;99.90;;;;;;5076006;28;20462;-77
2021/08/20 07:32:41;;;;;;;16.83;14.90;;;18.80;99.90;;;;;;5075277;28;20466;-77
2021/08/20 07:35:08;;;;;;;20.27;16.37;;;18.70;99.90;;;;;;5075824;28;20488;-76
2021/08/20 07:37:34;;;;;;;18.47;15.63;;;18.70;99.90;;;;;;5075485;28;20458;-76
2021/08/20 07:40:01;;;;;;;18.40;16.07;;;18.70;99.90;;;;;;5075880;28;20489;-76
2021/08/20 07:42:31;;;;;;;22.60;17.70;;;18.60;99.90;;;;;;5075459;28;20489;-78
2021/08/20 07:44:58;;;;;;;18.37;15.80;;;18.60;99.90;;;;;;5075001;28;20470;-76
2021/08/20 07:47:25;;;;;;;20.50;16.70;;;18.50;99.90;;;;;;5075126;28;20924;-76
2021/08/20 07:49:52;;;;;;;18.50;15.73;;;18.60;99.90;;;;;;5074978;28;20458;-76
2021/08/20 07:52:18;;;;;;;18.37;15.00;;;18.50;99.90;;;;;;5075453;28;20814;-77
2021/08/20 07:54:47;;;;;;;15.73;12.87;;;18.50;99.90;;;;;;5076027;28;20502;-77
2021/08/20 07:57:14;;;;;;;16.67;12.80;;;18.30;99.90;;;;;;5078346;28;20789;-76
2021/08/20 07:59:42;;;;;;;14.03;11.00;;;17.70;99.90;;;;;;5080211;28;20455;-76
2021/08/20 08:02:09;;;;;;;15.57;11.20;;;17.30;99.90;;;;;;5081277;28;20541;-76
2021/08/20 08:04:35;;;;;;;13.80;11.90;;;17.10;99.90;;;;;;5077238;28;20803;-76
2021/08/20 08:07:02;;;;;;;12.77;10.30;;;16.90;99.90;;;;;;5075200;28;20465;-76
2021/08/20 08:09:29;;;;;;;12.00;10.20;;;16.70;99.90;;;;;;5075210;28;20766;-76
2021/08/20 08:11:56;;;;;;;12.97;9.77;;;16.60;99.90;;;;;;5074673;28;20485;-77
2021/08/20 08:14:22;;;;;;;11.93;8.93;;;16.60;99.90;;;;;;5074771;28;20485;-75
2021/08/20 08:16:50;;;;;;;12.93;8.30;;;16.60;99.90;;;;;;5074608;28;20922;-76
2021/08/20 08:19:19;;;;;;;10.50;9.40;;;16.60;99.90;;;;;;5074853;28;20470;-76
2021/08/20 08:21:46;;;;;;;13.07;9.00;;;16.60;99.90;;;;;;5074492;28;20464;-76
2021/08/20 08:24:13;;;;;;;10.10;8.37;;;16.70;99.90;;;;;;5074485;28;20458;-75
2021/08/20 08:26:39;;;;;;;9.07;8.17;;;16.80;99.90;;;;;;5074612;28;20595;-77
2021/08/20 08:29:06;;;;;;;9.23;8.13;;;16.80;99.90;;;;;;5074359;28;20465;-75
2021/08/20 08:31:33;;;;;;;10.00;9.00;;;16.90;99.90;;;;;;5074344;28;20966;-76
2021/08/20 08:34:01;;;;;;;11.50;9.17;;;16.90;99.90;;;;;;5074357;28;20789;-75
2021/08/20 08:36:30;;;;;;;11.70;9.23;;;16.90;99.90;;;;;;5073574;28;20464;-75
2021/08/20 08:38:57;;;;;;;11.57;9.43;;;16.90;99.90;;;;;;5074416;28;20561;-75
2021/08/20 08:41:25;;;;;;;14.10;10.00;;;16.90;99.90;;;;;;5073880;28;20450;-75
2021/08/20 08:43:51;;;;;;;10.60;8.60;;;16.90;99.90;;;;;;5073836;28;20472;-76
2021/08/20 08:46:23;;;;;;;12.40;9.13;;;16.90;99.90;;;;;;5077897;28;20473;-75
2021/08/20 08:48:50;;;;;;;11.80;8.47;;;16.90;99.90;;;;;;5078379;28;20438;-75
2021/08/20 08:51:19;;;;;;;10.70;9.23;;;16.90;99.90;;;;;;5077663;28;20482;-75
2021/08/20 08:53:46;;;;;;;17.37;9.77;;;17.00;99.90;;;;;;5077878;28;20462;-74
2021/08/20 08:56:17;;;;;;;12.00;8.37;;;17.00;99.90;;;;;;5077497;28;20956;-75
2021/08/20 08:58:43;;;;;;;11.87;8.77;;;17.10;99.90;;;;;;5077448;28;20465;-74
2021/08/20 09:01:30;;;;;;;10.87;8.60;;;17.20;99.90;;;;;;5077587;28;20477;-73
2021/08/20 09:04:14;;;;;;;11.27;8.57;;;17.30;99.90;;;;;;5077651;28;20489;-73
2021/08/20 09:06:44;;;;;;;11.03;8.30;;;17.40;99.90;;;;;;5077788;28;20446;-74
2021/08/20 09:09:12;;;;;;;10.83;9.00;;;17.60;99.90;;;;;;5077043;28;20465;-73
2021/08/20 09:11:39;;;;;;;8.93;8.10;;;17.70;99.90;;;;;;5077583;28;20493;-75
2021/08/20 09:14:07;;;;;;;9.67;8.70;;;17.80;99.90;;;;;;5077774;28;20843;-74
2021/08/20 09:16:38;;;;;;;11.87;8.87;;;17.80;99.90;;;;;;5077735;28;20458;-74
2021/08/20 09:19:11;;;;;;;11.83;8.10;;;17.80;99.90;;;;;;5077887;28;20453;-75
2021/08/20 09:21:37;;;;;;;10.40;8.77;;;17.80;99.90;;;;;;5077453;28;20794;-76
2021/08/20 09:24:28;;;;;;;10.33;8.30;;;17.90;99.90;;;;;;5077695;28;20458;-75
2021/08/20 09:26:55;;;;;;;8.43;7.10;;;17.90;99.90;;;;;;5078061;28;20472;-75
2021/08/20 09:29:22;;;;;;;10.10;7.00;;;17.80;99.90;;;;;;5077931;28;20550;-75
2021/08/20 09:31:53;;;;;;;10.97;7.60;;;17.70;99.90;;;;;;5077324;28;20513;-74
2021/08/20 09:34:20;;;;;;;8.03;7.23;;;17.70;99.90;;;;;;5077414;28;20462;-75
2021/08/20 09:36:46;;;;;;;7.73;6.17;;;17.70;99.90;;;;;;5077874;28;20515;-76
2021/08/20 09:39:26;;;;;;;8.10;5.10;;;17.70;99.90;;;;;;5078608;28;20926;-77
2021/08/20 09:42:12;;;;;;;5.47;3.97;;;17.70;99.90;;;;;;5077848;28;21023;-77
2021/08/20 09:44:39;;;;;;;3.70;3.10;;;17.70;99.90;;;;;;5077876;28;20458;-76
2021/08/20 09:47:06;;;;;;;2.93;2.10;;;17.70;99.90;;;;;;5077870;28;20490;-75
2021/08/20 09:49:56;;;;;;;2.53;2.30;;;17.70;99.90;;;;;;5077857;28;20554;-76
2021/08/20 09:52:27;;;;;;;3.50;2.30;;;17.90;99.90;;;;;;5079922;28;20494;-75
2021/08/20 09:54:58;;;;;;;2.20;1.77;;;18.10;99.90;;;;;;5081164;28;20458;-75
2021/08/20 09:57:27;;;;;;;4.93;2.10;;;18.20;99.90;;;;;;5083068;28;20450;-76
2021/08/20 09:59:55;;;;;;;1.90;1.70;;;18.40;99.90;;;;;;5086307;28;20454;-75
2021/08/20 10:02:26;;;;;;;2.23;2.10;;;18.50;99.90;;;;;;5086278;28;20460;-74
2021/08/20 10:04:55;;;;;;;2.63;2.43;;;18.60;99.90;;;;;;5086036;28;20438;-76
2021/08/20 10:07:26;;;;;;;2.63;2.27;;;18.70;99.90;;;;;;5084652;28;20472;-75
2021/08/20 10:09:55;;;;;;;2.30;2.10;;;18.70;99.90;;;;;;5086538;28;20439;-74
2021/08/20 10:12:24;;;;;;;5.40;2.53;;;18.80;99.90;;;;;;5085077;28;20488;-74
2021/08/20 10:14:52;;;;;;;2.60;2.40;;;19.00;99.90;;;;;;5084549;28;20458;-74
2021/08/20 10:17:19;;;;;;;4.13;2.53;;;19.20;99.90;;;;;;5083657;28;20454;-73
2021/08/20 10:19:48;;;;;;;2.73;2.03;;;19.30;99.90;;;;;;5083472;28;20457;-73
2021/08/20 10:22:15;;;;;;;2.20;1.90;;;19.50;99.90;;;;;;5087512;28;20450;-73
2021/08/20 10:24:43;;;;;;;4.47;2.80;;;19.80;99.90;;;;;;5084094;28;20458;-74
2021/08/20 10:27:12;;;;;;;3.20;2.70;;;19.90;99.90;;;;;;5078732;28;20461;-73
2021/08/20 10:29:45;;;;;;;3.37;2.27;;;19.90;99.90;;;;;;5076463;28;20469;-73
2021/08/20 10:32:14;;;;;;;3.40;2.40;;;19.90;99.90;;;;;;5075704;28;20463;-74
2021/08/20 10:34:42;;;;;;;2.73;2.53;;;19.90;99.90;;;;;;5076061;28;20459;-73
2021/08/20 10:37:12;;;;;;;4.50;4.03;;;19.90;99.90;;;;;;5076095;28;20458;-75
2021/08/20 10:39:40;;;;;;;5.47;4.13;;;20.00;99.90;;;;;;5075776;28;20572;-74
2021/08/20 10:42:08;;;;;;;4.23;3.83;;;19.80;99.90;;;;;;5075820;28;20478;-75
2021/08/20 10:44:38;;;;;;;6.60;4.90;;;19.60;99.90;;;;;;5076562;28;20458;-73
2021/08/20 10:47:06;;;;;;;6.03;5.53;;;19.60;99.90;;;;;;5076565;28;20466;-74
2021/08/20 10:49:44;;;;;;;9.63;5.13;;;19.50;99.90;;;;;;5078671;28;20508;-75
2021/08/20 10:52:24;;;;;;;6.87;6.17;;;19.60;99.90;;;;;;5077982;28;20476;-74
2021/08/20 10:55:25;;;;;;;5.77;4.60;;;19.60;99.90;;;;;;5075716;28;20449;-74
2021/08/20 10:58:11;;;;;;;7.50;4.93;;;19.50;99.90;;;;;;5074954;28;20460;-74
2021/08/20 11:00:55;;;;;;;5.63;5.13;;;19.60;99.90;;;;;;5075277;28;20466;-74
2021/08/20 11:03:40;;;;;;;5.53;4.90;;;19.80;99.90;;;;;;5075448;28;20431;-75
2021/08/20 11:06:09;;;;;;;5.37;4.90;;;20.10;99.90;;;;;;5075400;28;20439;-74
2021/08/20 11:08:40;;;;;;;6.17;5.30;;;20.20;99.90;;;;;;5075437;28;20504;-74
2021/08/20 11:11:46;;;;;;;4.97;4.47;;;20.30;99.90;;;;;;5075343;28;20465;-74
2021/08/20 11:14:32;;;;;;;5.50;4.90;;;20.30;99.90;;;;;;5075346;28;20786;-74
2021/08/20 11:17:01;;;;;;;7.23;4.10;;;20.30;99.90;;;;;;5074990;28;20465;-74
2021/08/20 11:20:00;;;;;;;4.73;4.27;;;20.50;99.90;;;;;;5075363;28;20891;-74
2021/08/20 11:22:29;;;;;;;4.27;3.87;;;20.70;99.90;;;;;;5074843;28;20883;-74
2021/08/20 11:25:24;;;;;;;5.20;4.50;;;20.90;99.90;;;;;;5075122;28;20465;-74
2021/08/20 11:28:03;;;;;;;4.33;3.93;;;21.40;99.90;;;;;;5076408;28;20434;-75
2021/08/20 11:30:31;;;;;;;5.70;5.20;;;21.60;99.90;;;;;;5075401;28;20445;-74
2021/08/20 11:33:18;;;;;;;5.00;4.60;;;21.70;99.90;;;;;;5074605;28;20512;-74
2021/08/20 11:35:48;;;;;;;5.27;4.70;;;21.70;99.90;;;;;;5074413;28;20442;-74
2021/08/20 11:38:34;;;;;;;5.90;5.40;;;21.60;99.90;;;;;;5074990;28;20465;-75
2021/08/20 11:41:04;;;;;;;6.10;5.47;;;21.50;99.90;;;;;;5073467;28;20458;-74
2021/08/20 11:43:33;;;;;;;4.80;4.40;;;21.40;99.90;;;;;;5074114;28;20565;-74
2021/08/20 11:46:02;;;;;;;5.43;4.93;;;21.30;99.90;;;;;;5074339;28;20465;-74
2021/08/20 11:48:32;;;;;;;5.43;4.93;;;21.10;99.90;;;;;;5074546;28;20595;-74
2021/08/20 11:51:01;;;;;;;6.13;5.50;;;21.00;99.90;;;;;;5074555;28;20539;-74
2021/08/20 11:53:28;;;;;;;5.17;4.67;;;20.80;99.90;;;;;;5074021;28;20504;-74
2021/08/20 11:56:12;;;;;;;7.80;5.40;;;20.70;99.90;;;;;;5074289;28;20461;-74
2021/08/20 11:58:39;;;;;;;6.47;5.67;;;20.60;99.90;;;;;;5074176;28;20450;-74
2021/08/20 12:01:06;;;;;;;7.20;5.60;;;20.60;99.90;;;;;;5074265;28;20465;-74
2021/08/20 12:03:35;;;;;;;6.23;5.57;;;20.50;99.90;;;;;;5074411;28;20465;-74
2021/08/20 12:06:12;;;;;;;7.10;6.10;;;20.40;99.90;;;;;;5073998;28;20458;-73
2021/08/20 12:08:39;;;;;;;6.10;5.50;;;20.30;99.90;;;;;;5074665;28;20522;-74
2021/08/20 12:11:08;;;;;;;7.20;6.50;;;20.30;99.90;;;;;;5074018;28;20515;-74
2021/08/20 12:13:42;;;;;;;11.23;6.97;;;20.20;99.90;;;;;;5074387;28;20788;-74
2021/08/20 12:16:12;;;;;;;7.60;6.77;;;20.10;99.90;;;;;;5074169;28;20958;-73
2021/08/20 12:18:44;;;;;;;7.70;6.80;;;20.00;99.90;;;;;;5074155;28;20438;-75
2021/08/20 12:21:15;;;;;;;7.10;6.40;;;19.90;99.90;;;;;;5073020;28;20450;-75
2021/08/20 12:23:59;;;;;;;10.00;6.27;;;19.90;99.90;;;;;;5074363;28;20775;-75
2021/08/20 12:26:26;;;;;;;6.77;6.17;;;19.90;99.90;;;;;;5073901;28;20439;-74
2021/08/20 12:28:53;;;;;;;8.20;7.17;;;19.90;99.90;;;;;;5074301;28;20458;-74
2021/08/20 12:31:23;;;;;;;8.00;7.20;;;20.00;99.90;;;;;;5074246;28;20999;-75
2021/08/20 12:34:02;;;;;;;9.10;7.17;;;20.00;99.90;;;;;;5073774;28;20811;-73
2021/08/20 12:36:29;;;;;;;10.20;8.00;;;20.00;99.90;;;;;;5074121;28;20465;-74
2021/08/20 12:39:10;;;;;;;8.60;6.97;;;19.90;99.90;;;;;;5074225;28;20466;-74
2021/08/20 12:41:39;;;;;;;8.37;7.67;;;20.20;99.90;;;;;;5074465;28;20914;-74
2021/08/20 12:44:07;;;;;;;8.93;7.87;;;20.80;99.90;;;;;;5073869;28;20441;-74
2021/08/20 12:46:35;;;;;;;7.70;6.87;;;21.30;99.90;;;;;;5075237;28;20549;-74
2021/08/20 12:49:06;;;;;;;9.60;7.50;;;22.00;99.90;;;;;;5074886;28;20534;-74
2021/08/20 12:51:32;;;;;;;10.23;8.20;;;22.90;99.90;;;;;;5074085;28;20454;-74